sensor_id;sensor_type;location;lat;lon;timestamp;temperature;humidity
29777;DHT22;16677;52.224;7.484;2022-09-12T00:00:13;14.00;99.90
29777;DHT22;16677;52.224;7.484;2022-09-12T00:02:41;13.90;99.90
29777;DHT22;16677;52.224;7.484;2022-09-12T00:05:08;13.70;99.90
29777;DHT22;16677;52.224;7.484;2022-09-12T00:07:35;13.70;99.90
29777;DHT22;16677;52.224;7.484;2022-09-12T00:10:02;13.80;99.90
29777;DHT22;16677;52.224;7.484;2022-09-12T00:12:30;13.80;99.90
29777;DHT22;16677;52.224;7.484;2022-09-12T00:14:57;13.70;99.90
29777;DHT22;16677;52.224;7.484;2022-09-12T00:17:24;13.70;99.90
29777;DHT22;16677;52.224;7.484;2022-09-12T00:19:51;13.80;99.90
29777;DHT22;16677;52.224;7.484;2022-09-12T00:22:18;13.70;99.90
29777;DHT22;16677;52.224;7.484;2022-09-12T00:24:45;13.70;99.90
29777;DHT22;16677;52.224;7.484;2022-09-12T00:27:12;13.70;99.90
29777;DHT22;16677;52.224;7.484;2022-09-12T00:29:40;13.70;99.90
29777;DHT22;16677;52.224;7.484;2022-09-12T00:32:07;13.60;99.90
29777;DHT22;16677;52.224;7.484;2022-09-12T00:34:34;13.60;99.90
29777;DHT22;16677;52.224;7.484;2022-09-12T00:37:02;13.50;99.90
29777;DHT22;16677;52.224;7.484;2022-09-12T00:39:29;13.50;99.90
29777;DHT22;16677;52.224;7.484;2022-09-12T00:41:56;13.50;99.90
29777;DHT22;16677;52.224;7.484;2022-09-12T00:46:58;13.50;99.90
29777;DHT22;16677;52.224;7.484;2022-09-12T00:52:08;13.60;99.90
29777;DHT22;16677;52.224;7.484;2022-09-12T00:54:56;13.40;99.90
29777;DHT22;16677;52.224;7.484;2022-09-12T00:57:28;13.40;99.90
29777;DHT22;16677;52.224;7.484;2022-09-12T01:00:23;13.40;99.90
29777;DHT22;16677;52.224;7.484;2022-09-12T01:03:00;13.50;99.90
29777;DHT22;16677;52.224;7.484;2022-09-12T01:05:29;13.50;99.90
29777;DHT22;16677;52.224;7.484;2022-09-12T01:07:56;13.60;99.90
29777;DHT22;16677;52.224;7.484;2022-09-12T01:10:26;13.50;99.90
29777;DHT22;16677;52.224;7.484;2022-09-12T01:12:52;13.50;99.90
29777;DHT22;16677;52.224;7.484;2022-09-12T01:15:19;13.30;99.90
29777;DHT22;16677;52.224;7.484;2022-09-12T01:18:11;13.40;99.90
29777;DHT22;16677;52.224;7.484;2022-09-12T01:20:49;13.40;99.90
29777;DHT22;16677;52.224;7.484;2022-09-12T01:31:59;13.30;99.90
29777;DHT22;16677;52.224;7.484;2022-09-12T01:34:32;13.40;99.90
29777;DHT22;16677;52.224;7.484;2022-09-12T01:42:33;13.30;99.90
29777;DHT22;16677;52.224;7.484;2022-09-12T01:45:15;13.40;99.90
29777;DHT22;16677;52.224;7.484;2022-09-12T01:47:50;13.40;99.90
29777;DHT22;16677;52.224;7.484;2022-09-12T01:50:24;13.30;99.90
29777;DHT22;16677;52.224;7.484;2022-09-12T01:52:57;13.30;99.90
29777;DHT22;16677;52.224;7.484;2022-09-12T01:55:35;13.30;99.90
29777;DHT22;16677;52.224;7.484;2022-09-12T01:58:10;13.40;99.90
29777;DHT22;16677;52.224;7.484;2022-09-12T02:00:48;13.40;99.90
29777;DHT22;16677;52.224;7.484;2022-09-12T02:03:26;13.50;99.90
29777;DHT22;16677;52.224;7.484;2022-09-12T02:06:07;13.40;99.90
29777;DHT22;16677;52.224;7.484;2022-09-12T02:08:50;13.50;99.90
29777;DHT22;16677;52.224;7.484;2022-09-12T02:11:18;13.50;99.90
29777;DHT22;16677;52.224;7.484;2022-09-12T02:14:06;13.40;99.90
29777;DHT22;16677;52.224;7.484;2022-09-12T02:16:43;13.40;99.90
29777;DHT22;16677;52.224;7.484;2022-09-12T02:19:19;13.40;99.90
29777;DHT22;16677;52.224;7.484;2022-09-12T02:21:55;13.50;99.90
29777;DHT22;16677;52.224;7.484;2022-09-12T02:24:35;13.60;99.90
29777;DHT22;16677;52.224;7.484;2022-09-12T02:27:07;13.40;99.90
29777;DHT22;16677;52.224;7.484;2022-09-12T02:29:36;13.50;99.90
29777;DHT22;16677;52.224;7.484;2022-09-12T02:32:30;13.40;99.90
29777;DHT22;16677;52.224;7.484;2022-09-12T02:37:49;13.40;99.90
29777;DHT22;16677;52.224;7.484;2022-09-12T02:40:19;13.40;99.90
29777;DHT22;16677;52.224;7.484;2022-09-12T02:42:46;13.30;99.90
29777;DHT22;16677;52.224;7.484;2022-09-12T02:45:13;13.40;99.90
29777;DHT22;16677;52.224;7.484;2022-09-12T02:50:33;13.30;99.90
29777;DHT22;16677;52.224;7.484;2022-09-12T02:53:03;13.30;99.90
29777;DHT22;16677;52.224;7.484;2022-09-12T02:55:32;13.30;99.90
29777;DHT22;16677;52.224;7.484;2022-09-12T02:58:02;13.20;99.90
29777;DHT22;16677;52.224;7.484;2022-09-12T03:01:09;13.20;99.90
29777;DHT22;16677;52.224;7.484;2022-09-12T03:04:05;13.30;99.90
29777;DHT22;16677;52.224;7.484;2022-09-12T03:09:30;13.20;99.90
29777;DHT22;16677;52.224;7.484;2022-09-12T03:20:42;13.10;99.90
29777;DHT22;16677;52.224;7.484;2022-09-12T03:26:04;13.10;99.90
29777;DHT22;16677;52.224;7.484;2022-09-12T03:28:33;13.10;99.90
29777;DHT22;16677;52.224;7.484;2022-09-12T03:31:17;13.10;99.90
29777;DHT22;16677;52.224;7.484;2022-09-12T03:33:45;13.00;99.90
29777;DHT22;16677;52.224;7.484;2022-09-12T03:36:30;13.00;99.90
29777;DHT22;16677;52.224;7.484;2022-09-12T03:38:57;13.00;99.90
29777;DHT22;16677;52.224;7.484;2022-09-12T03:41:24;12.90;99.90
29777;DHT22;16677;52.224;7.484;2022-09-12T03:43:50;13.00;99.90
29777;DHT22;16677;52.224;7.484;2022-09-12T03:46:17;12.90;99.90
29777;DHT22;16677;52.224;7.484;2022-09-12T03:48:44;12.90;99.90
29777;DHT22;16677;52.224;7.484;2022-09-12T03:51:11;12.90;99.90
29777;DHT22;16677;52.224;7.484;2022-09-12T03:53:38;12.90;99.90
29777;DHT22;16677;52.224;7.484;2022-09-12T03:56:07;13.00;99.90
29777;DHT22;16677;52.224;7.484;2022-09-12T03:58:35;12.90;99.90
29777;DHT22;16677;52.224;7.484;2022-09-12T04:01:06;12.90;99.90
29777;DHT22;16677;52.224;7.484;2022-09-12T04:03:39;13.00;99.90
29777;DHT22;16677;52.224;7.484;2022-09-12T04:06:08;12.90;99.90
29777;DHT22;16677;52.224;7.484;2022-09-12T04:08:36;12.90;99.90
29777;DHT22;16677;52.224;7.484;2022-09-12T04:11:04;12.90;99.90
29777;DHT22;16677;52.224;7.484;2022-09-12T04:13:33;12.80;99.90
29777;DHT22;16677;52.224;7.484;2022-09-12T04:16:00;12.70;99.90
29777;DHT22;16677;52.224;7.484;2022-09-12T04:18:27;12.70;99.90
29777;DHT22;16677;52.224;7.484;2022-09-12T04:20:54;12.70;99.90
29777;DHT22;16677;52.224;7.484;2022-09-12T04:23:21;12.70;99.90
29777;DHT22;16677;52.224;7.484;2022-09-12T04:25:56;12.70;99.90
29777;DHT22;16677;52.224;7.484;2022-09-12T04:28:24;12.70;99.90
29777;DHT22;16677;52.224;7.484;2022-09-12T04:30:51;12.70;99.90
29777;DHT22;16677;52.224;7.484;2022-09-12T04:33:18;12.60;99.90
29777;DHT22;16677;52.224;7.484;2022-09-12T04:35:45;12.50;99.90
29777;DHT22;16677;52.224;7.484;2022-09-12T04:38:13;12.40;99.90
29777;DHT22;16677;52.224;7.484;2022-09-12T04:40:40;12.50;99.90
29777;DHT22;16677;52.224;7.484;2022-09-12T04:43:07;12.50;99.90
29777;DHT22;16677;52.224;7.484;2022-09-12T04:45:39;12.40;99.90
29777;DHT22;16677;52.224;7.484;2022-09-12T04:48:07;12.50;99.90
29777;DHT22;16677;52.224;7.484;2022-09-12T04:50:33;12.60;99.90
29777;DHT22;16677;52.224;7.484;2022-09-12T04:53:00;12.60;99.90
29777;DHT22;16677;52.224;7.484;2022-09-12T04:55:27;12.60;99.90
29777;DHT22;16677;52.224;7.484;2022-09-12T04:57:54;12.50;99.90
29777;DHT22;16677;52.224;7.484;2022-09-12T05:00:21;12.60;99.90
29777;DHT22;16677;52.224;7.484;2022-09-12T05:02:48;12.50;99.90
29777;DHT22;16677;52.224;7.484;2022-09-12T05:05:15;12.50;99.90
29777;DHT22;16677;52.224;7.484;2022-09-12T05:07:43;12.50;99.90
29777;DHT22;16677;52.224;7.484;2022-09-12T05:10:10;12.60;99.90
29777;DHT22;16677;52.224;7.484;2022-09-12T05:12:38;12.60;99.90
29777;DHT22;16677;52.224;7.484;2022-09-12T05:15:05;12.60;99.90
29777;DHT22;16677;52.224;7.484;2022-09-12T05:17:33;12.60;99.90
29777;DHT22;16677;52.224;7.484;2022-09-12T05:20:00;12.70;99.90
29777;DHT22;16677;52.224;7.484;2022-09-12T05:22:27;12.70;99.90
29777;DHT22;16677;52.224;7.484;2022-09-12T05:24:57;12.80;99.90
29777;DHT22;16677;52.224;7.484;2022-09-12T05:27:33;12.80;99.90
29777;DHT22;16677;52.224;7.484;2022-09-12T05:30:03;12.80;99.90
29777;DHT22;16677;52.224;7.484;2022-09-12T05:32:31;12.90;99.90
29777;DHT22;16677;52.224;7.484;2022-09-12T05:34:58;13.00;99.90
29777;DHT22;16677;52.224;7.484;2022-09-12T05:37:26;13.10;99.90
29777;DHT22;16677;52.224;7.484;2022-09-12T05:39:53;13.10;99.90
29777;DHT22;16677;52.224;7.484;2022-09-12T05:42:21;13.20;99.90
29777;DHT22;16677;52.224;7.484;2022-09-12T05:44:49;13.20;99.90
29777;DHT22;16677;52.224;7.484;2022-09-12T05:47:16;13.30;99.90
29777;DHT22;16677;52.224;7.484;2022-09-12T05:49:43;13.10;99.90
29777;DHT22;16677;52.224;7.484;2022-09-12T05:52:13;13.00;99.90
29777;DHT22;16677;52.224;7.484;2022-09-12T05:54:40;13.10;99.90
29777;DHT22;16677;52.224;7.484;2022-09-12T05:57:08;13.20;99.90
29777;DHT22;16677;52.224;7.484;2022-09-12T05:59:35;13.30;99.90
29777;DHT22;16677;52.224;7.484;2022-09-12T06:02:10;13.50;99.90
29777;DHT22;16677;52.224;7.484;2022-09-12T06:04:38;13.70;99.90
29777;DHT22;16677;52.224;7.484;2022-09-12T06:07:06;13.70;99.90
29777;DHT22;16677;52.224;7.484;2022-09-12T06:09:33;13.90;99.90
29777;DHT22;16677;52.224;7.484;2022-09-12T06:12:00;14.20;99.90
29777;DHT22;16677;52.224;7.484;2022-09-12T06:14:28;14.40;99.90
29777;DHT22;16677;52.224;7.484;2022-09-12T06:16:59;14.80;99.90
29777;DHT22;16677;52.224;7.484;2022-09-12T06:19:30;14.90;99.90
29777;DHT22;16677;52.224;7.484;2022-09-12T06:21:57;15.20;99.90
29777;DHT22;16677;52.224;7.484;2022-09-12T06:24:24;15.50;99.90
29777;DHT22;16677;52.224;7.484;2022-09-12T06:26:54;15.80;99.90
29777;DHT22;16677;52.224;7.484;2022-09-12T06:29:21;16.00;99.90
29777;DHT22;16677;52.224;7.484;2022-09-12T06:31:48;16.10;62.90
29777;DHT22;16677;52.224;7.484;2022-09-12T06:34:16;16.20;99.90
29777;DHT22;16677;52.224;7.484;2022-09-12T06:36:47;16.30;99.90
29777;DHT22;16677;52.224;7.484;2022-09-12T06:39:18;16.40;99.90
29777;DHT22;16677;52.224;7.484;2022-09-12T06:41:49;16.70;99.90
29777;DHT22;16677;52.224;7.484;2022-09-12T06:44:21;16.60;90.20
29777;DHT22;16677;52.224;7.484;2022-09-12T06:46:48;16.50;1.20
29777;DHT22;16677;52.224;7.484;2022-09-12T06:49:15;16.10;99.90
29777;DHT22;16677;52.224;7.484;2022-09-12T06:51:43;16.30;99.90
29777;DHT22;16677;52.224;7.484;2022-09-12T06:54:14;16.30;99.90
29777;DHT22;16677;52.224;7.484;2022-09-12T06:56:45;16.60;99.90
29777;DHT22;16677;52.224;7.484;2022-09-12T06:59:12;16.40;98.70
29777;DHT22;16677;52.224;7.484;2022-09-12T07:01:39;16.50;99.90
29777;DHT22;16677;52.224;7.484;2022-09-12T07:04:08;16.40;24.30
29777;DHT22;16677;52.224;7.484;2022-09-12T07:06:38;16.30;29.60
29777;DHT22;16677;52.224;7.484;2022-09-12T07:09:07;16.40;1.00
29777;DHT22;16677;52.224;7.484;2022-09-12T07:11:38;16.30;55.30
29777;DHT22;16677;52.224;7.484;2022-09-12T07:14:07;16.50;1.00
29777;DHT22;16677;52.224;7.484;2022-09-12T07:16:35;16.60;1.00
29777;DHT22;16677;52.224;7.484;2022-09-12T07:19:04;16.60;1.00
29777;DHT22;16677;52.224;7.484;2022-09-12T07:21:31;16.50;1.00
29777;DHT22;16677;52.224;7.484;2022-09-12T07:23:59;16.70;1.00
29777;DHT22;16677;52.224;7.484;2022-09-12T07:26:27;16.80;1.00
29777;DHT22;16677;52.224;7.484;2022-09-12T07:28:56;16.90;1.00
29777;DHT22;16677;52.224;7.484;2022-09-12T07:31:46;16.90;1.00
29777;DHT22;16677;52.224;7.484;2022-09-12T07:34:15;17.10;1.00
29777;DHT22;16677;52.224;7.484;2022-09-12T07:36:44;16.80;1.00
29777;DHT22;16677;52.224;7.484;2022-09-12T07:39:11;17.10;1.00
29777;DHT22;16677;52.224;7.484;2022-09-12T07:41:38;17.10;1.00
29777;DHT22;16677;52.224;7.484;2022-09-12T07:44:06;17.20;1.00
29777;DHT22;16677;52.224;7.484;2022-09-12T07:46:33;17.20;1.00
29777;DHT22;16677;52.224;7.484;2022-09-12T07:49:01;17.10;1.00
29777;DHT22;16677;52.224;7.484;2022-09-12T07:51:29;17.10;1.00
29777;DHT22;16677;52.224;7.484;2022-09-12T07:54:07;17.30;1.00
29777;DHT22;16677;52.224;7.484;2022-09-12T07:56:35;17.30;1.00
29777;DHT22;16677;52.224;7.484;2022-09-12T07:59:05;17.30;1.00
29777;DHT22;16677;52.224;7.484;2022-09-12T08:01:33;17.60;1.00
29777;DHT22;16677;52.224;7.484;2022-09-12T08:04:00;17.80;1.00
29777;DHT22;16677;52.224;7.484;2022-09-12T08:06:32;18.00;1.00
29777;DHT22;16677;52.224;7.484;2022-09-12T08:09:02;18.20;1.00
29777;DHT22;16677;52.224;7.484;2022-09-12T08:11:30;17.90;1.00
29777;DHT22;16677;52.224;7.484;2022-09-12T08:13:57;18.00;1.00
29777;DHT22;16677;52.224;7.484;2022-09-12T08:16:29;18.00;1.00
29777;DHT22;16677;52.224;7.484;2022-09-12T08:19:01;18.20;1.00
29777;DHT22;16677;52.224;7.484;2022-09-12T08:21:30;18.40;1.00
29777;DHT22;16677;52.224;7.484;2022-09-12T08:24:04;18.40;1.00
29777;DHT22;16677;52.224;7.484;2022-09-12T08:26:38;18.60;1.00
29777;DHT22;16677;52.224;7.484;2022-09-12T08:29:07;18.80;1.00
29777;DHT22;16677;52.224;7.484;2022-09-12T08:31:34;18.70;1.00
29777;DHT22;16677;52.224;7.484;2022-09-12T08:34:05;18.80;1.00
29777;DHT22;16677;52.224;7.484;2022-09-12T08:36:32;18.90;1.00
29777;DHT22;16677;52.224;7.484;2022-09-12T08:39:03;19.10;1.00
29777;DHT22;16677;52.224;7.484;2022-09-12T08:41:32;19.20;1.00
29777;DHT22;16677;52.224;7.484;2022-09-12T08:50:03;19.10;1.00
29777;DHT22;16677;52.224;7.484;2022-09-12T08:52:52;19.00;1.00
29777;DHT22;16677;52.224;7.484;2022-09-12T08:55:34;18.90;1.00
29777;DHT22;16677;52.224;7.484;2022-09-12T08:58:13;19.20;1.00
29777;DHT22;16677;52.224;7.484;2022-09-12T09:10:07;19.40;1.00
29777;DHT22;16677;52.224;7.484;2022-09-12T09:31:36;20.60;99.90
29777;DHT22;16677;52.224;7.484;2022-09-12T09:34:13;20.80;99.90
29777;DHT22;16677;52.224;7.484;2022-09-12T11:54:56;22.70;99.90
29777;DHT22;16677;52.224;7.484;2022-09-12T11:57:54;22.90;99.90
29777;DHT22;16677;52.224;7.484;2022-09-12T14:46:43;24.90;99.90
29777;DHT22;16677;52.224;7.484;2022-09-12T15:24:40;24.40;99.90
29777;DHT22;16677;52.224;7.484;2022-09-12T16:40:09;24.90;99.90
29777;DHT22;16677;52.224;7.484;2022-09-12T16:42:37;24.80;99.90
29777;DHT22;16677;52.224;7.484;2022-09-12T16:45:09;24.80;99.90
29777;DHT22;16677;52.224;7.484;2022-09-12T16:47:38;25.10;99.90
29777;DHT22;16677;52.224;7.484;2022-09-12T16:50:07;25.00;99.90
29777;DHT22;16677;52.224;7.484;2022-09-12T16:52:34;25.00;99.90
29777;DHT22;16677;52.224;7.484;2022-09-12T16:55:02;25.10;99.90
29777;DHT22;16677;52.224;7.484;2022-09-12T16:57:29;25.20;99.90
29777;DHT22;16677;52.224;7.484;2022-09-12T16:59:57;25.30;99.90
29777;DHT22;16677;52.224;7.484;2022-09-12T17:02:24;25.40;99.90
29777;DHT22;16677;52.224;7.484;2022-09-12T17:04:52;25.40;99.90
29777;DHT22;16677;52.224;7.484;2022-09-12T17:07:19;25.30;99.90
29777;DHT22;16677;52.224;7.484;2022-09-12T17:09:48;25.40;99.90
29777;DHT22;16677;52.224;7.484;2022-09-12T17:12:16;25.20;99.90
29777;DHT22;16677;52.224;7.484;2022-09-12T17:14:43;25.60;99.90
29777;DHT22;16677;52.224;7.484;2022-09-12T17:17:10;25.60;99.90
29777;DHT22;16677;52.224;7.484;2022-09-12T17:19:37;25.50;99.90
29777;DHT22;16677;52.224;7.484;2022-09-12T17:22:05;25.40;99.90
29777;DHT22;16677;52.224;7.484;2022-09-12T17:24:33;25.40;99.90
29777;DHT22;16677;52.224;7.484;2022-09-12T17:27:00;25.00;99.90
29777;DHT22;16677;52.224;7.484;2022-09-12T17:29:33;24.90;99.90
29777;DHT22;16677;52.224;7.484;2022-09-12T17:32:02;24.60;99.90
29777;DHT22;16677;52.224;7.484;2022-09-12T17:34:29;24.10;99.90
29777;DHT22;16677;52.224;7.484;2022-09-12T17:36:56;23.60;99.90
29777;DHT22;16677;52.224;7.484;2022-09-12T17:39:23;23.20;99.90
29777;DHT22;16677;52.224;7.484;2022-09-12T17:41:50;23.00;99.90
29777;DHT22;16677;52.224;7.484;2022-09-12T17:44:17;22.80;99.90
29777;DHT22;16677;52.224;7.484;2022-09-12T17:46:45;22.60;99.90
29777;DHT22;16677;52.224;7.484;2022-09-12T17:49:21;22.30;99.90
29777;DHT22;16677;52.224;7.484;2022-09-12T17:51:48;22.20;99.90
29777;DHT22;16677;52.224;7.484;2022-09-12T17:54:17;21.90;99.90
29777;DHT22;16677;52.224;7.484;2022-09-12T17:56:47;21.70;99.90
29777;DHT22;16677;52.224;7.484;2022-09-12T17:59:20;21.50;99.90
29777;DHT22;16677;52.224;7.484;2022-09-12T18:01:49;21.30;99.90
29777;DHT22;16677;52.224;7.484;2022-09-12T18:04:35;21.20;99.90
29777;DHT22;16677;52.224;7.484;2022-09-12T19:33:26;18.50;99.90
29777;DHT22;16677;52.224;7.484;2022-09-12T19:35:54;18.50;99.90
29777;DHT22;16677;52.224;7.484;2022-09-12T19:38:24;18.50;99.90
29777;DHT22;16677;52.224;7.484;2022-09-12T19:40:56;18.50;99.90
29777;DHT22;16677;52.224;7.484;2022-09-12T19:43:24;18.50;99.90
29777;DHT22;16677;52.224;7.484;2022-09-12T19:45:52;18.50;99.90
29777;DHT22;16677;52.224;7.484;2022-09-12T19:48:21;18.40;1.00
29777;DHT22;16677;52.224;7.484;2022-09-12T19:50:48;18.40;99.90
29777;DHT22;16677;52.224;7.484;2022-09-12T19:53:17;18.40;1.00
29777;DHT22;16677;52.224;7.484;2022-09-12T19:55:45;18.30;1.00
29777;DHT22;16677;52.224;7.484;2022-09-12T19:58:13;18.30;1.00
29777;DHT22;16677;52.224;7.484;2022-09-12T20:00:41;18.20;1.00
29777;DHT22;16677;52.224;7.484;2022-09-12T20:03:08;18.20;1.00
29777;DHT22;16677;52.224;7.484;2022-09-12T20:05:40;18.20;1.00
29777;DHT22;16677;52.224;7.484;2022-09-12T22:11:09;16.70;1.00
29777;DHT22;16677;52.224;7.484;2022-09-12T22:16:12;16.80;1.00
29777;DHT22;16677;52.224;7.484;2022-09-12T22:18:42;16.60;1.00
29777;DHT22;16677;52.224;7.484;2022-09-12T22:21:18;16.70;1.00
29777;DHT22;16677;52.224;7.484;2022-09-12T22:23:50;16.70;1.00
